Lac Ste. Marie, Canada
Current Conditions -  °F | °C
As of 11:00 AM on Thursday 27 Nov 2014 (Local Time) from CYND Reporting Station
Overcast Overcast  
Wind Chill: 21°   Ceiling: 2800
Heat Index: 28°   Visibility: 15mi
Dew Point: 18°   Wind: 7mph
Humidity: 64%   Direction: 300°WNW
Pressure: 30.07"   Gusts: NA
Location:  45.97°N, 75.93°W
Report Text: CYND 271600Z 30006KT 15SM OVC028 M02/M08 A3007 RMK SC8 SLP185
Loading
Personal Weather Stations






























Interactive Weather Map New forecast layout! Learn more

10-Day Weather Forecast

Advertisements
Track Severe Weather on mobile